createdAt,value
2022-10-04T00:01:13.633Z,2.97
2022-10-04T00:03:49.429Z,2.40
2022-10-04T00:06:24.630Z,0.63
2022-10-04T00:09:00.205Z,0.80
2022-10-04T00:11:37.646Z,2.85
2022-10-04T00:14:17.028Z,1.55
2022-10-04T00:16:44.797Z,2.03
2022-10-04T00:19:15.081Z,1.05
2022-10-04T00:22:07.652Z,1.65
2022-10-04T00:24:36.302Z,2.53
2022-10-04T00:27:13.132Z,1.63
2022-10-04T00:29:45.033Z,2.17
2022-10-04T00:32:16.053Z,0.80
2022-10-04T00:34:49.509Z,2.25
2022-10-04T00:37:25.596Z,1.20
2022-10-04T00:40:11.623Z,3.08
2022-10-04T00:42:45.834Z,1.70
2022-10-04T00:45:24.092Z,1.08
2022-10-04T00:47:58.679Z,0.95
2022-10-04T00:50:26.333Z,0.80
2022-10-04T00:52:58.162Z,2.17
2022-10-04T00:55:33.628Z,1.15
2022-10-04T00:58:05.386Z,2.10
2022-10-04T01:00:34.078Z,1.98
2022-10-04T01:03:15.278Z,2.92
2022-10-04T01:05:53.829Z,1.65
2022-10-04T01:08:28.911Z,0.98
2022-10-04T01:10:58.863Z,1.35
2022-10-04T01:13:26.451Z,3.17
2022-10-04T01:16:18.659Z,1.80
2022-10-04T01:18:47.642Z,2.80
2022-10-04T01:21:21.342Z,2.30
2022-10-04T01:23:51.179Z,3.15
2022-10-04T01:26:30.505Z,2.00
2022-10-04T01:29:11.454Z,1.52
2022-10-04T01:31:46.560Z,2.38
2022-10-04T01:34:17.640Z,2.67
2022-10-04T01:36:47.473Z,2.40
2022-10-04T01:39:16.448Z,2.28
2022-10-04T01:42:09.334Z,2.28
2022-10-04T01:44:44.738Z,1.80
2022-10-04T01:47:41.791Z,0.65
2022-10-04T01:50:18.970Z,0.60
2022-10-04T01:52:56.526Z,3.13
2022-10-04T01:55:30.638Z,0.88
2022-10-04T01:58:09.401Z,1.38
2022-10-04T02:00:43.656Z,2.25
2022-10-04T02:03:18.545Z,2.28
2022-10-04T02:05:50.355Z,2.33
2022-10-04T02:08:23.198Z,1.85
2022-10-04T02:10:51.647Z,3.50
2022-10-04T02:13:19.506Z,1.95
2022-10-04T02:15:48.188Z,2.28
2022-10-04T02:18:21.860Z,0.90
2022-10-04T02:20:51.879Z,1.88
2022-10-04T02:25:48.374Z,2.22
2022-10-04T02:28:18.378Z,2.08
2022-10-04T02:33:44.045Z,0.55
2022-10-04T02:36:12.050Z,2.35
2022-10-04T02:39:26.117Z,2.15
2022-10-04T02:41:59.007Z,1.00
2022-10-04T02:44:40.200Z,1.23
2022-10-04T02:47:13.962Z,2.50
2022-10-04T02:50:09.945Z,1.67
2022-10-04T02:52:44.132Z,3.35
2022-10-04T02:55:36.230Z,1.30
2022-10-04T02:58:10.019Z,1.15
2022-10-04T03:00:48.832Z,14.77
2022-10-04T03:03:26.330Z,5.13
2022-10-04T03:06:18.238Z,4.28
2022-10-04T03:08:59.197Z,1.73
2022-10-04T03:11:31.030Z,1.45
2022-10-04T03:14:03.635Z,1.73
2022-10-04T03:16:41.109Z,1.20
2022-10-04T03:19:09.488Z,1.77
2022-10-04T03:21:38.764Z,1.40
2022-10-04T03:24:07.158Z,4.15
2022-10-04T03:26:49.598Z,3.00
2022-10-04T03:31:52.437Z,3.33
2022-10-04T03:34:39.804Z,1.40
2022-10-04T03:37:11.920Z,3.60
2022-10-04T03:39:46.263Z,2.00
2022-10-04T03:42:13.957Z,1.92
2022-10-04T03:44:42.219Z,1.45
2022-10-04T03:47:14.703Z,3.08
2022-10-04T03:49:46.302Z,2.10
2022-10-04T03:52:41.557Z,3.80
2022-10-04T03:55:12.710Z,2.22
2022-10-04T03:57:40.425Z,7.32
2022-10-04T04:00:08.538Z,4.95
2022-10-04T04:02:45.991Z,6.53
2022-10-04T04:05:14.338Z,5.40
2022-10-04T04:07:48.462Z,6.32
2022-10-04T04:10:24.887Z,2.65
2022-10-04T04:13:02.316Z,2.25
2022-10-04T04:15:32.672Z,2.17
2022-10-04T04:18:13.819Z,4.07
2022-10-04T04:20:42.606Z,7.93
2022-10-04T04:23:16.475Z,2.15
2022-10-04T04:25:47.259Z,5.85
2022-10-04T04:28:30.562Z,2.05
2022-10-04T04:31:09.481Z,6.05
2022-10-04T04:33:56.498Z,23.85
2022-10-04T04:36:24.078Z,12.85
2022-10-04T04:39:10.364Z,6.70
2022-10-04T04:41:38.027Z,8.05
2022-10-04T04:44:17.094Z,7.32
2022-10-04T04:46:48.232Z,28.08
2022-10-04T04:49:19.398Z,18.13
2022-10-04T04:51:49.969Z,15.43
2022-10-04T04:54:18.218Z,11.70
2022-10-04T04:56:50.790Z,22.67
2022-10-04T04:59:18.715Z,34.92
2022-10-04T05:01:48.274Z,24.70
2022-10-04T05:04:15.892Z,41.58
2022-10-04T05:06:45.475Z,65.88
2022-10-04T05:09:26.695Z,13.32
2022-10-04T05:11:56.151Z,24.33
2022-10-04T05:14:24.829Z,24.98
2022-10-04T05:16:54.327Z,29.65
2022-10-04T05:19:25.490Z,25.15
2022-10-04T05:21:54.473Z,23.50
2022-10-04T05:24:24.380Z,8.60
2022-10-04T05:27:24.612Z,16.67
2022-10-04T05:30:23.723Z,36.20
2022-10-04T05:33:08.484Z,35.17
2022-10-04T05:35:55.238Z,27.73
2022-10-04T05:38:32.442Z,24.30
2022-10-04T05:41:08.018Z,36.22
2022-10-04T05:43:39.927Z,15.88
2022-10-04T05:46:26.570Z,30.30
2022-10-04T05:48:59.978Z,35.42
2022-10-04T05:51:48.823Z,51.70
2022-10-04T05:54:20.308Z,28.10
2022-10-04T05:56:51.140Z,48.42
2022-10-04T05:59:34.381Z,31.52
2022-10-04T06:02:35.048Z,36.85
2022-10-04T06:05:12.192Z,46.58
2022-10-04T06:08:10.787Z,29.40
2022-10-04T06:11:06.576Z,34.95
2022-10-04T06:14:02.029Z,14.13
2022-10-04T06:16:45.497Z,27.80
2022-10-04T06:19:28.435Z,33.25
2022-10-04T06:22:06.835Z,49.17
2022-10-04T06:24:37.551Z,35.72
2022-10-04T06:27:25.625Z,51.67
2022-10-04T06:30:06.121Z,41.72
2022-10-04T06:32:47.582Z,41.13
2022-10-04T06:35:16.057Z,25.67
2022-10-04T06:37:50.319Z,84.95
2022-10-04T06:40:27.030Z,41.53
2022-10-04T06:43:22.545Z,53.70
2022-10-04T06:46:05.736Z,102.60
2022-10-04T06:48:52.371Z,64.10
2022-10-04T06:51:46.740Z,36.20
2022-10-04T06:54:46.391Z,44.05
2022-10-04T06:57:14.169Z,42.70
2022-10-04T06:59:51.129Z,31.85
2022-10-04T07:02:43.506Z,38.85
2022-10-04T07:05:30.802Z,53.83
2022-10-04T07:08:34.330Z,73.13
2022-10-04T07:11:27.866Z,39.05
2022-10-04T07:13:58.080Z,31.08
2022-10-04T07:16:37.918Z,27.75
2022-10-04T07:19:09.790Z,43.63
2022-10-04T07:21:54.475Z,38.30
2022-10-04T07:24:47.912Z,42.55
2022-10-04T07:27:28.267Z,73.10
2022-10-04T07:29:58.420Z,63.88
2022-10-04T07:32:30.318Z,29.17
2022-10-04T07:35:03.902Z,32.47
2022-10-04T07:37:35.476Z,75.53
2022-10-04T07:40:28.741Z,33.55
2022-10-04T07:43:25.576Z,81.25
2022-10-04T07:46:31.402Z,47.63
2022-10-04T07:48:59.939Z,47.80
2022-10-04T07:51:55.857Z,55.78
2022-10-04T07:54:46.697Z,74.05
2022-10-04T07:57:38.800Z,51.47
2022-10-04T08:00:13.007Z,74.85
2022-10-04T08:03:16.003Z,57.33
2022-10-04T08:06:05.808Z,62.40
2022-10-04T08:08:42.227Z,74.60
2022-10-04T08:12:10.504Z,56.75
2022-10-04T08:14:54.541Z,40.13
2022-10-04T08:17:22.932Z,57.38
2022-10-04T08:20:27.559Z,55.80
2022-10-04T08:23:24.421Z,44.15
2022-10-04T08:26:08.280Z,147.40
2022-10-04T08:29:45.134Z,49.10
2022-10-04T08:32:39.323Z,86.22
2022-10-04T08:36:08.086Z,48.95
2022-10-04T08:39:01.655Z,57.72
2022-10-04T08:41:29.595Z,48.10
2022-10-04T08:44:33.609Z,50.30
2022-10-04T08:47:39.577Z,71.45
2022-10-04T08:50:08.182Z,45.25
2022-10-04T08:53:11.233Z,48.28
2022-10-04T08:56:06.602Z,35.60
2022-10-04T08:58:38.341Z,72.28
2022-10-04T09:01:06.442Z,103.50
2022-10-04T09:03:43.851Z,42.88
2022-10-04T09:06:23.900Z,38.58
2022-10-04T09:09:10.770Z,60.63
2022-10-04T09:11:41.797Z,51.08
2022-10-04T09:14:09.925Z,75.47
2022-10-04T09:16:49.464Z,54.35
2022-10-04T09:19:37.798Z,47.78
2022-10-04T09:22:20.506Z,32.25
2022-10-04T09:25:03.857Z,61.03
2022-10-04T09:28:05.434Z,66.57
2022-10-04T09:30:50.378Z,43.00
2022-10-04T09:33:59.764Z,50.08
2022-10-04T09:36:49.600Z,56.92
2022-10-04T09:39:59.493Z,58.50
2022-10-04T09:42:57.139Z,74.13
2022-10-04T09:45:51.076Z,65.25
2022-10-04T09:48:40.940Z,65.68
2022-10-04T09:51:15.262Z,45.08
2022-10-04T09:53:53.029Z,53.60
2022-10-04T09:56:40.947Z,60.95
2022-10-04T09:59:28.030Z,59.05
2022-10-04T10:02:04.815Z,84.95
2022-10-04T10:04:36.602Z,80.82
2022-10-04T10:07:09.538Z,93.72
2022-10-04T10:10:36.684Z,80.07
2022-10-04T10:13:43.451Z,84.85
2022-10-04T10:16:20.386Z,60.58
2022-10-04T10:19:28.366Z,55.25
2022-10-04T10:22:02.490Z,89.28
2022-10-04T10:24:45.478Z,52.15
2022-10-04T10:27:16.774Z,43.72
2022-10-04T10:29:53.591Z,43.90
2022-10-04T10:32:44.056Z,39.17
2022-10-04T10:35:41.032Z,35.20
2022-10-04T10:38:29.330Z,67.47
2022-10-04T10:41:20.449Z,57.15
2022-10-04T10:44:12.850Z,48.33
2022-10-04T10:47:26.526Z,65.03
2022-10-04T10:50:19.030Z,81.65
2022-10-04T10:53:20.768Z,48.83
2022-10-04T10:56:08.750Z,65.40
2022-10-04T10:58:55.300Z,41.28
2022-10-04T11:01:55.980Z,66.20
2022-10-04T11:04:24.308Z,51.33
2022-10-04T11:07:16.201Z,129.93
2022-10-04T11:09:44.648Z,83.05
2022-10-04T11:12:39.332Z,42.03
2022-10-04T11:15:38.713Z,56.40
2022-10-04T11:18:25.769Z,45.03
2022-10-04T11:21:26.971Z,44.90
2022-10-04T11:23:59.045Z,74.57
2022-10-04T11:26:57.787Z,105.75
2022-10-04T11:29:32.019Z,61.45
2022-10-04T11:32:28.950Z,61.30
2022-10-04T11:35:37.129Z,58.55
2022-10-04T11:38:48.877Z,82.15
2022-10-04T11:41:17.154Z,71.57
2022-10-04T11:43:59.902Z,90.07
2022-10-04T11:46:38.938Z,59.47
2022-10-04T11:49:35.889Z,74.72
2022-10-04T11:52:23.453Z,47.15
2022-10-04T11:55:36.672Z,51.55
2022-10-04T11:58:21.965Z,45.22
2022-10-04T12:01:23.198Z,87.88
2022-10-04T12:04:27.458Z,69.15
2022-10-04T12:07:27.869Z,146.70
2022-10-04T12:10:00.802Z,68.40
2022-10-04T12:12:38.171Z,90.97
2022-10-04T12:15:15.508Z,115.43
2022-10-04T12:18:18.125Z,72.32
2022-10-04T12:20:58.237Z,78.72
2022-10-04T12:24:00.246Z,81.60
2022-10-04T12:27:04.989Z,68.22
2022-10-04T12:30:02.390Z,37.05
2022-10-04T12:32:35.005Z,68.40
2022-10-04T12:35:16.724Z,51.55
2022-10-04T12:38:09.144Z,98.88
2022-10-04T12:41:07.793Z,39.95
2022-10-04T12:43:50.508Z,50.72
2022-10-04T12:46:20.499Z,59.58
2022-10-04T12:51:52.401Z,45.35
2022-10-04T12:54:33.583Z,30.08
2022-10-04T12:57:04.261Z,40.88
2022-10-04T12:59:43.710Z,45.10
2022-10-04T13:02:41.303Z,36.20
2022-10-04T13:05:31.317Z,44.45
2022-10-04T13:08:18.406Z,47.53
2022-10-04T13:10:48.221Z,38.72
2022-10-04T13:13:38.709Z,41.35
2022-10-04T13:19:11.672Z,49.67
2022-10-04T13:21:43.081Z,27.45
2022-10-04T13:24:54.874Z,41.53
2022-10-04T13:27:41.512Z,36.22
2022-10-04T13:30:37.641Z,44.60
2022-10-04T13:33:11.432Z,66.13
2022-10-04T13:36:03.530Z,39.83
2022-10-04T13:38:34.299Z,61.20
2022-10-04T13:41:20.812Z,24.83
2022-10-04T13:44:08.980Z,40.35
2022-10-04T13:46:47.868Z,32.33
2022-10-04T13:49:31.180Z,28.73
2022-10-04T13:52:29.162Z,24.05
2022-10-04T13:55:46.972Z,37.40
2022-10-04T13:58:34.031Z,47.63
2022-10-04T14:01:19.716Z,45.60
2022-10-04T14:04:15.040Z,25.98
2022-10-04T14:07:10.684Z,21.00
2022-10-04T14:10:15.487Z,25.55
2022-10-04T14:13:19.279Z,31.80
2022-10-04T14:16:06.273Z,13.50
2022-10-04T14:18:42.921Z,20.67
2022-10-04T14:21:53.086Z,64.47
2022-10-04T14:24:32.633Z,27.67
2022-10-04T14:27:20.863Z,43.03
2022-10-04T14:30:06.350Z,28.75
2022-10-04T14:32:52.189Z,6.82
2022-10-04T14:35:41.788Z,28.13
2022-10-04T14:38:24.501Z,9.00
2022-10-04T14:41:22.092Z,14.10
2022-10-04T14:44:26.339Z,14.88
2022-10-04T14:46:57.091Z,33.75
2022-10-04T14:49:51.641Z,26.25
2022-10-04T14:55:27.227Z,20.70
2022-10-04T14:58:03.531Z,9.40
2022-10-04T15:01:08.436Z,20.10
2022-10-04T15:03:42.484Z,13.05
2022-10-04T15:06:38.419Z,13.73
2022-10-04T15:09:37.764Z,8.73
2022-10-04T15:13:09.359Z,12.55
2022-10-04T15:16:13.700Z,14.93
2022-10-04T15:19:04.748Z,16.83
2022-10-04T15:21:38.168Z,5.43
2022-10-04T15:24:47.136Z,19.10
2022-10-04T15:27:17.608Z,11.00
2022-10-04T15:30:22.373Z,17.70
2022-10-04T15:33:01.864Z,11.43
2022-10-04T15:35:38.761Z,3.30
2022-10-04T15:38:35.172Z,17.85
2022-10-04T15:41:05.954Z,5.65
2022-10-04T15:43:36.868Z,10.80
2022-10-04T15:46:25.358Z,15.18
2022-10-04T15:51:41.751Z,8.27
2022-10-04T15:54:33.238Z,11.30
2022-10-04T15:57:19.677Z,8.98
2022-10-04T15:59:58.225Z,9.07
2022-10-04T16:02:51.435Z,12.70
2022-10-04T16:05:25.173Z,14.40
2022-10-04T16:08:09.670Z,11.38
2022-10-04T16:11:01.908Z,7.00
2022-10-04T16:13:45.184Z,3.83
2022-10-04T16:16:29.615Z,7.90
2022-10-04T16:19:43.046Z,4.75
2022-10-04T16:22:20.949Z,11.68
2022-10-04T16:24:54.000Z,4.38
2022-10-04T16:27:37.102Z,1.73
2022-10-04T16:30:27.460Z,9.25
2022-10-04T16:33:15.304Z,5.43
2022-10-04T16:36:02.612Z,2.78
2022-10-04T16:38:35.467Z,6.55
2022-10-04T16:41:09.559Z,3.10
2022-10-04T16:43:47.762Z,6.25
2022-10-04T16:46:38.333Z,4.15
2022-10-04T16:49:47.656Z,3.15
2022-10-04T16:52:25.453Z,12.07
2022-10-04T16:55:02.796Z,6.55
2022-10-04T16:57:30.721Z,4.50
2022-10-04T17:00:07.503Z,5.95
2022-10-04T17:02:46.805Z,1.95
2022-10-04T17:05:35.946Z,3.83
2022-10-04T17:08:07.274Z,4.20
2022-10-04T17:10:51.591Z,2.63
2022-10-04T17:13:25.763Z,4.30
2022-10-04T17:16:02.644Z,6.63
2022-10-04T17:19:10.665Z,3.90
2022-10-04T17:22:12.148Z,4.00
2022-10-04T17:24:54.593Z,1.48
2022-10-04T17:27:22.664Z,10.27
2022-10-04T17:30:11.889Z,2.95
2022-10-04T17:32:58.019Z,6.20
2022-10-04T17:35:47.378Z,2.45
2022-10-04T17:38:45.197Z,2.17
2022-10-04T17:41:16.167Z,9.20
2022-10-04T17:44:20.140Z,3.00
2022-10-04T17:47:23.596Z,0.80
2022-10-04T17:50:20.964Z,3.92
2022-10-04T17:53:14.919Z,1.60
2022-10-04T17:55:56.147Z,4.00
2022-10-04T17:58:30.677Z,2.00
2022-10-04T18:01:01.532Z,1.83
2022-10-04T18:03:38.570Z,1.95
2022-10-04T18:06:26.192Z,4.68
2022-10-04T18:09:16.052Z,1.70
2022-10-04T18:12:11.866Z,2.63
2022-10-04T18:14:52.303Z,5.35
2022-10-04T18:17:43.226Z,0.93
2022-10-04T18:20:40.444Z,4.95
2022-10-04T18:23:25.331Z,5.32
2022-10-04T18:25:58.347Z,5.25
2022-10-04T18:28:26.621Z,2.80
2022-10-04T18:31:00.624Z,3.67
2022-10-04T18:33:50.004Z,1.30
2022-10-04T18:36:24.708Z,1.80
2022-10-04T18:39:04.106Z,1.10
2022-10-04T18:41:50.222Z,1.60
2022-10-04T18:44:29.743Z,3.03
2022-10-04T18:47:01.136Z,2.47
2022-10-04T18:49:31.149Z,8.05
2022-10-04T18:54:59.814Z,1.85
2022-10-04T18:58:06.321Z,1.85
2022-10-04T19:01:02.478Z,1.25
2022-10-04T19:03:31.252Z,1.25
2022-10-04T19:06:06.880Z,1.60
2022-10-04T19:08:48.111Z,2.03
2022-10-04T19:11:23.352Z,1.40
2022-10-04T19:13:51.106Z,0.68
2022-10-04T19:16:21.991Z,2.58
2022-10-04T19:19:18.509Z,2.40
2022-10-04T19:21:49.358Z,1.30
2022-10-04T19:24:19.608Z,1.65
2022-10-04T19:27:38.166Z,1.65
2022-10-04T19:30:21.628Z,1.85
2022-10-04T19:33:04.712Z,1.90
2022-10-04T19:35:54.430Z,1.33
2022-10-04T19:38:59.158Z,1.73
2022-10-04T19:41:38.853Z,0.82
2022-10-04T19:44:06.628Z,0.65
2022-10-04T19:46:43.678Z,0.82
2022-10-04T19:49:42.612Z,0.60
2022-10-04T19:52:59.684Z,1.30
2022-10-04T19:56:00.923Z,2.85
2022-10-04T19:58:32.007Z,1.17
2022-10-04T20:00:59.930Z,0.73
2022-10-04T20:03:27.872Z,2.42
2022-10-04T20:05:55.894Z,1.85
2022-10-04T20:08:50.475Z,1.75
2022-10-04T20:11:28.975Z,1.23
2022-10-04T20:14:08.897Z,1.83
2022-10-04T20:16:54.735Z,0.85
2022-10-04T20:19:39.003Z,1.88
2022-10-04T20:22:10.192Z,1.88
2022-10-04T20:24:38.097Z,1.30
2022-10-04T20:27:29.811Z,1.67
2022-10-04T20:30:04.790Z,0.65
2022-10-04T20:32:36.939Z,0.90
2022-10-04T20:35:11.746Z,1.65
2022-10-04T20:37:45.664Z,1.67
2022-10-04T20:40:36.228Z,1.75
2022-10-04T20:43:18.810Z,1.13
2022-10-04T20:45:55.117Z,1.30
2022-10-04T20:48:35.144Z,1.98
2022-10-04T20:51:12.893Z,2.13
2022-10-04T20:53:46.902Z,2.70
2022-10-04T20:56:29.607Z,0.63
2022-10-04T20:59:01.895Z,3.05
2022-10-04T21:01:36.901Z,1.33
2022-10-04T21:04:14.468Z,0.57
2022-10-04T21:06:56.377Z,1.90
2022-10-04T21:09:25.819Z,1.42
2022-10-04T21:11:55.389Z,2.35
2022-10-04T21:14:25.846Z,4.28
2022-10-04T21:16:59.967Z,0.75
2022-10-04T21:19:45.088Z,2.28
2022-10-04T21:22:18.589Z,1.42
2022-10-04T21:24:49.732Z,2.22
2022-10-04T21:27:29.123Z,2.22
2022-10-04T21:29:57.076Z,1.98
2022-10-04T21:32:26.894Z,1.05
2022-10-04T21:34:56.817Z,2.08
2022-10-04T21:37:26.078Z,2.92
2022-10-04T21:40:03.111Z,0.85
2022-10-04T21:42:31.060Z,2.55
2022-10-04T21:44:58.716Z,2.50
2022-10-04T21:47:27.355Z,0.90
2022-10-04T21:49:55.299Z,2.72
2022-10-04T21:52:23.048Z,1.42
2022-10-04T21:54:53.650Z,1.67
2022-10-04T21:57:24.112Z,2.83
2022-10-04T21:59:52.746Z,1.65
2022-10-04T22:02:20.709Z,1.08
2022-10-04T22:04:57.682Z,1.55
2022-10-04T22:07:26.550Z,2.40
2022-10-04T22:09:54.473Z,2.20
2022-10-04T22:12:22.565Z,2.97
2022-10-04T22:14:50.300Z,0.88
2022-10-04T22:17:18.076Z,2.30
2022-10-04T22:19:45.859Z,2.35
2022-10-04T22:22:16.608Z,1.65
2022-10-04T22:24:44.577Z,1.33
2022-10-04T22:27:18.323Z,0.98
2022-10-04T22:29:46.152Z,1.45
2022-10-04T22:32:24.856Z,1.63
2022-10-04T22:34:53.263Z,2.35
2022-10-04T22:37:24.942Z,1.35
2022-10-04T22:39:53.059Z,1.08
2022-10-04T22:42:22.067Z,0.75
2022-10-04T22:44:49.991Z,1.00
2022-10-04T22:47:18.150Z,1.98
2022-10-04T22:49:50.266Z,2.28
2022-10-04T22:52:21.221Z,1.35
2022-10-04T22:54:51.768Z,2.05
2022-10-04T22:57:20.081Z,1.30
2022-10-04T22:59:51.814Z,2.85
2022-10-04T23:02:29.587Z,1.35
2022-10-04T23:05:10.487Z,2.55
2022-10-04T23:07:39.942Z,1.52
2022-10-04T23:10:08.364Z,2.13
2022-10-04T23:12:36.331Z,2.25
2022-10-04T23:15:06.388Z,1.27
2022-10-04T23:20:28.693Z,1.50
2022-10-04T23:22:56.987Z,2.35
2022-10-04T23:25:28.004Z,3.75
2022-10-04T23:28:12.972Z,1.45
2022-10-04T23:30:41.044Z,2.55
2022-10-04T23:33:24.472Z,8.73
2022-10-04T23:35:53.879Z,8.32
2022-10-04T23:38:24.649Z,1.88
2022-10-04T23:40:52.704Z,4.55
2022-10-04T23:43:25.879Z,2.58
2022-10-04T23:45:58.826Z,1.52
2022-10-04T23:48:28.244Z,1.40
2022-10-04T23:50:57.396Z,1.13
2022-10-04T23:53:26.958Z,2.92
2022-10-04T23:55:59.932Z,2.78
2022-10-04T23:58:34.872Z,1.98
